createdAt,value
2019-04-28T00:00:56.466Z,7.00
2019-04-28T00:03:57.872Z,7.00
2019-04-28T00:06:59.212Z,7.06
2019-04-28T00:10:01.105Z,7.00
2019-04-28T00:13:04.133Z,7.06
2019-04-28T00:16:07.219Z,7.00
2019-04-28T00:19:10.998Z,7.06
2019-04-28T00:22:21.273Z,7.06
2019-04-28T00:25:25.778Z,7.12
2019-04-28T00:28:27.104Z,7.12
2019-04-28T00:31:28.590Z,7.12
2019-04-28T00:34:31.136Z,7.12
2019-04-28T00:37:35.416Z,7.12
2019-04-28T00:40:36.735Z,7.19
2019-04-28T00:43:38.133Z,7.25
2019-04-28T00:46:41.133Z,7.19
2019-04-28T00:49:48.597Z,7.19
2019-04-28T00:52:51.666Z,7.12
2019-04-28T00:55:54.011Z,7.12
2019-04-28T00:58:55.505Z,7.06
2019-04-28T01:02:01.226Z,7.00
2019-04-28T01:05:02.763Z,6.94
2019-04-28T01:08:05.273Z,6.87
2019-04-28T01:11:06.627Z,6.87
2019-04-28T01:14:07.954Z,6.87
2019-04-28T01:17:14.828Z,6.81
2019-04-28T01:20:19.701Z,6.81
2019-04-28T01:23:21.114Z,6.81
2019-04-28T01:26:22.471Z,6.81
2019-04-28T01:29:23.768Z,6.81
2019-04-28T01:32:32.839Z,6.75
2019-04-28T01:35:34.198Z,6.81
2019-04-28T01:38:35.536Z,6.81
2019-04-28T01:41:36.954Z,6.81
2019-04-28T01:44:39.511Z,6.81
2019-04-28T01:47:40.931Z,6.75
2019-04-28T01:50:42.322Z,6.62
2019-04-28T01:53:43.655Z,6.56
2019-04-28T01:56:44.996Z,6.56
2019-04-28T01:59:46.379Z,6.56
2019-04-28T02:02:47.774Z,6.56
2019-04-28T02:05:50.139Z,6.56
2019-04-28T02:08:51.653Z,6.62
2019-04-28T02:11:53.015Z,6.56
2019-04-28T02:14:54.331Z,6.56
2019-04-28T02:17:55.686Z,6.44
2019-04-28T02:21:16.136Z,6.37
2019-04-28T02:24:34.161Z,6.37
2019-04-28T02:27:35.530Z,6.19
2019-04-28T02:30:45.341Z,6.31
2019-04-28T02:33:40.888Z,6.31
2019-04-28T02:36:42.441Z,6.25
2019-04-28T02:39:43.763Z,6.19
2019-04-28T02:42:45.106Z,6.19
2019-04-28T02:45:46.535Z,6.25
2019-04-28T02:48:50.833Z,6.25
2019-04-28T02:52:00.001Z,6.31
2019-04-28T02:55:03.121Z,6.37
2019-04-28T02:58:06.038Z,6.44
2019-04-28T03:01:18.575Z,6.44
2019-04-28T03:04:12.392Z,6.44
2019-04-28T03:07:14.638Z,6.37
2019-04-28T03:10:16.274Z,6.37
2019-04-28T03:13:17.633Z,6.44
2019-04-28T03:16:20.857Z,6.50
2019-04-28T03:19:22.019Z,6.50
2019-04-28T03:22:23.367Z,6.44
2019-04-28T03:25:35.475Z,6.37
2019-04-28T03:28:51.873Z,6.44
2019-04-28T03:32:28.819Z,6.44
2019-04-28T03:35:12.915Z,6.37
2019-04-28T03:38:12.878Z,6.44
2019-04-28T03:41:14.208Z,6.50
2019-04-28T03:44:15.549Z,6.50
2019-04-28T03:47:21.170Z,6.50
2019-04-28T03:50:22.025Z,6.50
2019-04-28T03:53:23.379Z,6.50
2019-04-28T03:56:24.715Z,6.56
2019-04-28T03:59:26.140Z,6.56
2019-04-28T04:02:31.167Z,6.56
2019-04-28T04:05:31.626Z,6.56
2019-04-28T04:08:32.967Z,6.56
2019-04-28T04:11:42.766Z,6.56
2019-04-28T04:14:52.149Z,6.56
2019-04-28T04:18:11.194Z,6.69
2019-04-28T04:21:13.046Z,6.62
2019-04-28T04:24:14.389Z,6.62
2019-04-28T04:27:15.752Z,6.62
2019-04-28T04:30:20.620Z,6.62
2019-04-28T04:33:21.189Z,6.62
2019-04-28T04:36:22.499Z,6.62
2019-04-28T04:39:23.864Z,6.56
2019-04-28T04:42:25.164Z,6.56
2019-04-28T04:45:26.504Z,6.50
2019-04-28T04:48:27.846Z,6.56
2019-04-28T04:51:30.629Z,6.62
2019-04-28T04:54:33.652Z,6.50
2019-04-28T04:57:35.296Z,6.50
2019-04-28T05:01:03.237Z,6.50
2019-04-28T05:04:23.527Z,6.56
2019-04-28T05:07:24.824Z,6.56
2019-04-28T05:10:26.160Z,6.69
2019-04-28T05:13:27.572Z,6.69
2019-04-28T05:16:29.764Z,6.62
2019-04-28T05:19:31.191Z,6.62
2019-04-28T05:22:35.330Z,6.62
2019-04-28T05:25:40.156Z,6.69
2019-04-28T05:28:50.587Z,6.69
2019-04-28T05:31:44.473Z,6.62
2019-04-28T05:34:46.964Z,6.62
2019-04-28T05:37:49.397Z,6.62
2019-04-28T05:40:50.793Z,6.62
2019-04-28T05:43:52.118Z,6.62
2019-04-28T05:46:53.402Z,6.56
2019-04-28T05:50:13.680Z,6.62
2019-04-28T05:53:30.458Z,6.69
2019-04-28T05:56:50.733Z,6.69
2019-04-28T06:00:06.455Z,6.69
2019-04-28T06:03:09.686Z,6.69
2019-04-28T06:06:11.100Z,6.75
2019-04-28T06:09:30.014Z,6.87
2019-04-28T06:12:34.104Z,6.81
2019-04-28T06:15:35.532Z,6.81
2019-04-28T06:18:36.923Z,6.75
2019-04-28T06:21:38.262Z,6.75
2019-04-28T06:24:39.571Z,6.69
2019-04-28T06:27:41.971Z,6.50
2019-04-28T06:30:43.292Z,6.44
2019-04-28T06:33:44.706Z,6.37
2019-04-28T06:36:45.978Z,6.25
2019-04-28T06:39:47.490Z,6.12
2019-04-28T06:42:48.793Z,6.12
2019-04-28T06:45:50.094Z,6.31
2019-04-28T06:48:51.490Z,6.37
2019-04-28T06:51:52.836Z,6.44
2019-04-28T06:54:54.175Z,6.44
2019-04-28T06:57:55.474Z,6.56
2019-04-28T07:00:56.830Z,6.62
2019-04-28T07:03:58.148Z,6.81
2019-04-28T07:06:59.505Z,6.81
2019-04-28T07:10:00.827Z,7.12
2019-04-28T07:13:02.140Z,7.62
2019-04-28T07:16:03.605Z,7.56
2019-04-28T07:19:05.096Z,7.81
2019-04-28T07:22:11.791Z,7.75
2019-04-28T07:25:13.104Z,7.81
2019-04-28T07:28:14.427Z,7.37
2019-04-28T07:31:16.618Z,7.50
2019-04-28T07:34:18.087Z,7.37
2019-04-28T07:37:19.500Z,7.31
2019-04-28T07:40:20.806Z,7.25
2019-04-28T07:43:22.177Z,7.44
2019-04-28T07:46:23.494Z,7.37
2019-04-28T07:49:24.809Z,7.31
2019-04-28T07:52:32.020Z,7.62
2019-04-28T07:55:33.371Z,7.37
2019-04-28T07:58:34.788Z,7.44
2019-04-28T08:01:36.199Z,7.31
2019-04-28T08:04:37.492Z,7.25
2019-04-28T08:07:38.799Z,7.56
2019-04-28T08:10:40.104Z,7.25
2019-04-28T08:13:41.533Z,7.50
2019-04-28T08:16:42.934Z,7.56
2019-04-28T08:19:44.330Z,7.81
2019-04-28T08:22:45.656Z,7.87
2019-04-28T08:25:47.059Z,8.19
2019-04-28T08:28:48.390Z,8.44
2019-04-28T08:32:06.598Z,8.44
2019-04-28T08:35:08.342Z,8.38
2019-04-28T08:38:10.829Z,8.56
2019-04-28T08:41:12.136Z,8.94
2019-04-28T08:44:13.453Z,9.50
2019-04-28T08:47:14.790Z,10.50
2019-04-28T08:50:16.128Z,10.50
2019-04-28T08:53:17.539Z,9.38
2019-04-28T08:56:18.883Z,9.19
2019-04-28T08:59:20.193Z,8.56
2019-04-28T09:02:21.539Z,8.63
2019-04-28T09:05:22.904Z,8.31
2019-04-28T09:08:24.306Z,8.25
2019-04-28T09:11:25.621Z,8.63
2019-04-28T09:14:26.938Z,9.38
2019-04-28T09:17:31.348Z,9.50
2019-04-28T09:20:32.714Z,10.56
2019-04-28T09:23:34.107Z,11.19
2019-04-28T09:26:37.042Z,11.00
2019-04-28T09:29:38.587Z,10.88
2019-04-28T09:32:39.931Z,10.00
2019-04-28T09:35:42.374Z,9.69
2019-04-28T09:38:43.735Z,10.00
2019-04-28T09:42:04.037Z,10.44
2019-04-28T09:45:08.278Z,10.88
2019-04-28T09:48:09.813Z,11.50
2019-04-28T09:51:11.172Z,11.50
2019-04-28T09:54:12.495Z,11.19
2019-04-28T09:57:13.844Z,11.06
2019-04-28T10:00:15.215Z,11.12
2019-04-28T10:03:16.561Z,11.38
2019-04-28T10:06:17.919Z,10.13
2019-04-28T10:09:19.294Z,9.50
2019-04-28T10:12:26.920Z,9.94
2019-04-28T10:15:23.781Z,9.56
2019-04-28T10:18:25.141Z,9.56
2019-04-28T10:21:26.495Z,10.13
2019-04-28T10:24:27.842Z,11.00
2019-04-28T10:27:29.199Z,12.00
2019-04-28T10:30:30.544Z,12.81
2019-04-28T10:33:31.900Z,11.81
2019-04-28T10:36:34.904Z,12.00
2019-04-28T10:39:58.060Z,11.50
2019-04-28T10:42:59.435Z,12.31
2019-04-28T10:46:00.786Z,11.44
2019-04-28T10:49:03.099Z,10.94
2019-04-28T10:52:04.454Z,11.06
2019-04-28T10:55:07.046Z,11.63
2019-04-28T10:58:08.436Z,12.31
2019-04-28T11:01:09.784Z,11.94
2019-04-28T11:04:30.101Z,11.44
2019-04-28T11:07:31.501Z,11.06
2019-04-28T11:10:32.825Z,10.56
2019-04-28T11:13:34.260Z,10.13
2019-04-28T11:16:37.474Z,9.38
2019-04-28T11:19:38.815Z,8.81
2019-04-28T11:22:40.131Z,8.69
2019-04-28T11:25:41.495Z,8.38
2019-04-28T11:28:42.847Z,8.06
2019-04-28T11:31:44.186Z,7.62
2019-04-28T11:34:51.850Z,7.81
2019-04-28T11:37:53.217Z,7.94
2019-04-28T11:40:54.587Z,7.62
2019-04-28T11:43:55.885Z,7.69
2019-04-28T11:46:57.208Z,7.75
2019-04-28T11:49:58.634Z,8.13
2019-04-28T11:52:59.955Z,8.56
2019-04-28T11:56:01.320Z,9.19
2019-04-28T11:59:03.729Z,9.25
2019-04-28T12:02:05.829Z,9.81
2019-04-28T12:05:07.263Z,9.81
2019-04-28T12:08:08.634Z,9.69
2019-04-28T12:11:21.282Z,10.25
2019-04-28T12:14:26.765Z,11.38
2019-04-28T12:17:45.667Z,11.12
2019-04-28T12:20:47.020Z,10.63
2019-04-28T12:23:48.380Z,10.06
2019-04-28T12:26:49.757Z,10.69
2019-04-28T12:29:51.112Z,10.63
2019-04-28T12:32:52.482Z,11.19
2019-04-28T12:35:53.867Z,11.44
2019-04-28T12:38:55.209Z,11.31
2019-04-28T12:41:56.591Z,10.63
2019-04-28T12:44:57.971Z,11.50
2019-04-28T12:47:59.327Z,11.12
2019-04-28T12:51:00.685Z,10.94
2019-04-28T12:54:04.862Z,11.75
2019-04-28T12:57:06.266Z,12.19
2019-04-28T13:00:17.798Z,12.06
2019-04-28T13:03:41.766Z,12.00
2019-04-28T13:06:44.833Z,12.31
2019-04-28T13:09:46.187Z,11.94
2019-04-28T13:12:47.539Z,12.06
2019-04-28T13:15:48.893Z,11.94
2019-04-28T13:18:50.297Z,11.75
2019-04-28T13:21:52.754Z,11.81
2019-04-28T13:24:54.105Z,11.25
2019-04-28T13:27:55.451Z,11.69
2019-04-28T13:30:56.804Z,12.44
2019-04-28T13:34:00.565Z,13.25
2019-04-28T13:37:01.951Z,13.94
2019-04-28T13:40:10.733Z,14.06
2019-04-28T13:43:12.103Z,13.56
2019-04-28T13:46:14.527Z,13.00
2019-04-28T13:49:17.713Z,12.44
2019-04-28T13:52:19.176Z,12.63
2019-04-28T13:55:48.354Z,12.50
2019-04-28T13:58:58.727Z,12.31
2019-04-28T14:02:09.224Z,12.50
2019-04-28T14:05:20.371Z,12.25
2019-04-28T14:08:21.726Z,12.56
2019-04-28T14:11:23.104Z,12.81
2019-04-28T14:14:24.514Z,13.25
2019-04-28T14:17:25.839Z,12.00
2019-04-28T14:20:27.202Z,11.44
2019-04-28T14:23:28.695Z,11.69
2019-04-28T14:26:30.047Z,12.00
2019-04-28T14:29:37.727Z,13.00
2019-04-28T14:32:39.211Z,13.00
2019-04-28T14:35:40.563Z,13.19
2019-04-28T14:38:43.211Z,14.19
2019-04-28T14:41:44.631Z,14.19
2019-04-28T14:44:46.094Z,15.44
2019-04-28T14:47:47.439Z,15.75
2019-04-28T14:50:48.797Z,15.69
2019-04-28T14:53:50.160Z,15.88
2019-04-28T14:56:51.532Z,14.13
2019-04-28T14:59:52.873Z,15.25
2019-04-28T15:03:01.505Z,15.38
2019-04-28T15:06:12.179Z,15.00
2019-04-28T15:09:35.382Z,14.63
2019-04-28T15:12:37.124Z,15.00
2019-04-28T15:15:39.027Z,15.31
2019-04-28T15:18:40.382Z,14.44
2019-04-28T15:21:41.754Z,13.94
2019-04-28T15:24:43.126Z,14.50
2019-04-28T15:27:44.559Z,14.81
2019-04-28T15:30:46.015Z,14.31
2019-04-28T15:33:47.386Z,13.31
2019-04-28T15:36:48.960Z,13.31
2019-04-28T15:39:50.319Z,12.00
2019-04-28T15:42:51.752Z,12.69
2019-04-28T15:45:53.231Z,13.44
2019-04-28T15:48:54.627Z,13.44
2019-04-28T15:51:55.968Z,13.06
2019-04-28T15:54:57.405Z,12.63
2019-04-28T15:58:00.412Z,12.88
2019-04-28T16:01:01.839Z,13.13
2019-04-28T16:04:03.251Z,12.75
2019-04-28T16:07:04.671Z,12.06
2019-04-28T16:10:06.719Z,11.69
2019-04-28T16:13:08.083Z,11.12
2019-04-28T16:16:09.437Z,10.88
2019-04-28T16:19:10.927Z,10.88
2019-04-28T16:22:12.371Z,11.38
2019-04-28T16:25:14.137Z,11.25
2019-04-28T16:28:15.522Z,10.88
2019-04-28T16:31:16.875Z,10.81
2019-04-28T16:34:18.258Z,10.75
2019-04-28T16:37:38.174Z,10.81
2019-04-28T16:40:30.368Z,10.69
2019-04-28T16:43:43.734Z,10.81
2019-04-28T16:46:45.086Z,10.44
2019-04-28T16:49:46.435Z,10.19
2019-04-28T16:52:48.129Z,10.38
2019-04-28T16:56:07.275Z,10.31
2019-04-28T16:59:30.374Z,10.31
2019-04-28T17:02:37.516Z,10.56
2019-04-28T17:05:38.875Z,10.63
2019-04-28T17:08:40.230Z,10.81
2019-04-28T17:11:41.571Z,10.63
2019-04-28T17:14:42.931Z,10.69
2019-04-28T17:17:44.284Z,10.69
2019-04-28T17:20:45.629Z,10.69
2019-04-28T17:23:47.171Z,10.50
2019-04-28T17:26:48.809Z,10.50
2019-04-28T17:29:51.276Z,10.44
2019-04-28T17:32:53.785Z,10.38
2019-04-28T17:35:55.199Z,10.13
2019-04-28T17:38:56.763Z,10.06
2019-04-28T17:42:00.978Z,9.94
2019-04-28T17:45:05.998Z,9.94
2019-04-28T17:48:21.789Z,9.75
2019-04-28T17:51:23.135Z,9.75
2019-04-28T17:54:24.490Z,9.94
2019-04-28T17:57:25.882Z,9.88
2019-04-28T18:00:45.577Z,10.00
2019-04-28T18:04:09.725Z,9.88
2019-04-28T18:07:25.632Z,9.88
2019-04-28T18:10:27.387Z,9.81
2019-04-28T18:13:28.760Z,9.69
2019-04-28T18:16:49.048Z,9.75
2019-04-28T18:19:50.471Z,9.75
2019-04-28T18:22:51.963Z,9.63
2019-04-28T18:25:53.309Z,9.50
2019-04-28T18:28:57.739Z,9.38
2019-04-28T18:32:24.302Z,9.25
2019-04-28T18:35:37.251Z,9.25
2019-04-28T18:38:59.334Z,9.19
2019-04-28T18:42:09.642Z,9.00
2019-04-28T18:45:11.488Z,9.06
2019-04-28T18:48:12.831Z,9.06
2019-04-28T18:51:14.299Z,9.00
2019-04-28T18:54:15.762Z,8.94
2019-04-28T18:57:17.275Z,8.81
2019-04-28T19:00:20.306Z,8.81
2019-04-28T19:03:21.706Z,8.63
2019-04-28T19:06:23.121Z,8.69
2019-04-28T19:09:46.532Z,8.50
2019-04-28T19:13:03.986Z,8.25
2019-04-28T19:16:30.250Z,8.19
2019-04-28T19:19:32.905Z,8.38
2019-04-28T19:22:43.879Z,8.56
2019-04-28T19:25:45.323Z,8.25
2019-04-28T19:28:46.784Z,8.06
2019-04-28T19:31:48.284Z,7.75
2019-04-28T19:34:49.611Z,7.94
2019-04-28T19:37:50.927Z,7.62
2019-04-28T19:40:52.352Z,7.69
2019-04-28T19:43:53.853Z,7.94
2019-04-28T19:46:55.310Z,8.19
2019-04-28T19:49:56.688Z,7.87
2019-04-28T19:52:58.293Z,7.50
2019-04-28T19:56:08.459Z,7.37
2019-04-28T19:59:20.193Z,7.62
2019-04-28T20:02:21.515Z,7.56
2019-04-28T20:05:22.862Z,7.50
2019-04-28T20:08:24.377Z,7.69
2019-04-28T20:11:25.698Z,7.69
2019-04-28T20:14:27.142Z,7.62
2019-04-28T20:17:28.667Z,7.81
2019-04-28T20:20:30.154Z,7.94
2019-04-28T20:23:31.663Z,7.81
2019-04-28T20:26:35.905Z,7.75
2019-04-28T20:29:37.228Z,7.81
2019-04-28T20:32:46.538Z,7.81
2019-04-28T20:35:53.063Z,7.62
2019-04-28T20:39:15.273Z,7.25
2019-04-28T20:42:38.192Z,7.56
2019-04-28T20:45:39.518Z,7.62
2019-04-28T20:48:40.913Z,7.50
2019-04-28T20:51:42.218Z,7.31
2019-04-28T20:54:43.536Z,7.25
2019-04-28T20:57:44.948Z,7.50
2019-04-28T21:00:46.340Z,7.62
2019-04-28T21:03:47.885Z,7.25
2019-04-28T21:06:49.238Z,7.19
2019-04-28T21:09:50.601Z,7.25
2019-04-28T21:12:51.980Z,7.25
2019-04-28T21:15:53.422Z,7.25
2019-04-28T21:18:54.779Z,7.37
2019-04-28T21:21:56.151Z,7.00
2019-04-28T21:24:57.578Z,7.00
2019-04-28T21:27:58.949Z,7.19
2019-04-28T21:31:00.375Z,7.00
2019-04-28T21:34:03.894Z,7.06
2019-04-28T21:37:05.355Z,7.06
2019-04-28T21:40:07.959Z,7.12
2019-04-28T21:43:43.351Z,6.94
2019-04-28T21:46:55.085Z,6.75
2019-04-28T21:50:09.169Z,6.87
2019-04-28T21:53:12.112Z,6.56
2019-04-28T21:56:14.531Z,6.56
2019-04-28T21:59:15.848Z,6.69
2019-04-28T22:02:17.236Z,6.25
2019-04-28T22:05:29.831Z,6.19
2019-04-28T22:08:21.684Z,6.37
2019-04-28T22:11:23.060Z,6.50
2019-04-28T22:14:24.360Z,6.25
2019-04-28T22:17:25.692Z,6.25
2019-04-28T22:20:27.008Z,6.00
2019-04-28T22:23:34.547Z,6.25
2019-04-28T22:26:54.836Z,6.06
2019-04-28T22:29:56.154Z,6.12
2019-04-28T22:32:57.505Z,6.19
2019-04-28T22:35:58.815Z,6.31
2019-04-28T22:39:00.241Z,6.31
2019-04-28T22:42:01.841Z,6.25
2019-04-28T22:45:03.291Z,6.25
2019-04-28T22:48:05.766Z,6.31
2019-04-28T22:51:08.070Z,6.44
2019-04-28T22:54:24.454Z,6.25
2019-04-28T22:57:35.053Z,6.31
2019-04-28T23:01:07.591Z,6.44
2019-04-28T23:04:27.456Z,6.44
2019-04-28T23:07:28.869Z,6.12
2019-04-28T23:10:30.252Z,6.25
2019-04-28T23:13:31.661Z,6.19
2019-04-28T23:16:32.989Z,6.19
2019-04-28T23:19:37.480Z,6.37
2019-04-28T23:22:50.032Z,6.37
2019-04-28T23:25:51.361Z,6.37
2019-04-28T23:28:52.705Z,6.31
2019-04-28T23:31:54.016Z,6.31
2019-04-28T23:34:55.362Z,6.31
2019-04-28T23:37:56.701Z,6.25
2019-04-28T23:41:15.118Z,6.31
2019-04-28T23:44:16.457Z,6.25
2019-04-28T23:47:17.789Z,6.12
2019-04-28T23:50:24.358Z,6.19
2019-04-28T23:53:44.674Z,6.12
2019-04-28T23:56:46.001Z,6.19
2019-04-28T23:59:47.344Z,6.19
